createdAt,value
2024-01-10T00:00:58.842Z,229.00
2024-01-10T00:03:25.890Z,154.50
2024-01-10T00:05:52.763Z,138.70
2024-01-10T00:08:20.243Z,89.30
2024-01-10T00:10:47.276Z,168.20
2024-01-10T00:13:14.325Z,132.90
2024-01-10T00:15:41.190Z,129.20
2024-01-10T00:18:08.177Z,95.90
2024-01-10T00:20:35.108Z,88.90
2024-01-10T00:23:02.105Z,87.90
2024-01-10T00:25:28.991Z,91.40
2024-01-10T00:27:56.353Z,87.40
2024-01-10T00:30:23.713Z,74.60
2024-01-10T00:32:50.666Z,95.90
2024-01-10T00:35:18.032Z,95.10
2024-01-10T00:37:44.966Z,96.40
2024-01-10T00:40:12.037Z,82.60
2024-01-10T00:42:38.952Z,75.00
2024-01-10T00:45:06.404Z,78.40
2024-01-10T00:47:33.317Z,87.50
2024-01-10T00:50:00.833Z,81.80
2024-01-10T00:52:27.749Z,70.80
2024-01-10T00:54:54.807Z,81.40
2024-01-10T00:57:21.662Z,83.30
2024-01-10T00:59:48.754Z,73.90
2024-01-10T01:02:15.798Z,80.30
2024-01-10T01:04:42.886Z,79.10
2024-01-10T01:07:10.145Z,78.90
2024-01-10T01:09:37.023Z,81.90
2024-01-10T01:12:04.374Z,69.10
2024-01-10T01:14:31.319Z,67.40
2024-01-10T01:16:58.239Z,77.20
2024-01-10T01:19:25.183Z,70.60
2024-01-10T01:21:52.366Z,91.80
2024-01-10T01:24:19.191Z,93.00
2024-01-10T01:26:46.236Z,82.30
2024-01-10T01:29:13.222Z,85.50
2024-01-10T01:31:41.550Z,96.70
2024-01-10T01:34:08.675Z,76.30
2024-01-10T01:36:35.884Z,80.10
2024-01-10T01:39:02.896Z,84.10
2024-01-10T01:41:29.793Z,85.90
2024-01-10T01:43:56.836Z,74.40
2024-01-10T01:46:24.655Z,74.10
2024-01-10T01:48:52.100Z,70.10
2024-01-10T01:51:21.852Z,79.50
2024-01-10T01:53:51.149Z,76.70
2024-01-10T01:56:18.605Z,80.90
2024-01-10T01:58:47.140Z,92.60
2024-01-10T02:01:14.271Z,82.60
2024-01-10T02:03:41.431Z,81.40
2024-01-10T02:06:08.407Z,80.80
2024-01-10T02:08:36.829Z,71.30
2024-01-10T02:11:05.080Z,80.00
2024-01-10T02:13:34.266Z,67.10
2024-01-10T02:16:01.726Z,85.80
2024-01-10T02:18:28.905Z,81.40
2024-01-10T02:20:56.087Z,84.50
2024-01-10T02:23:23.113Z,84.40
2024-01-10T02:25:50.877Z,79.40
2024-01-10T02:28:17.946Z,79.50
2024-01-10T02:30:45.108Z,74.00
2024-01-10T02:33:12.226Z,72.30
2024-01-10T02:35:39.190Z,77.50
2024-01-10T02:38:07.204Z,74.70
2024-01-10T02:40:34.275Z,77.20
2024-01-10T02:43:01.296Z,69.60
2024-01-10T02:45:28.175Z,70.70
2024-01-10T02:47:55.166Z,80.50
2024-01-10T02:50:22.174Z,73.80
2024-01-10T02:52:50.141Z,72.40
2024-01-10T02:55:17.236Z,64.10
2024-01-10T02:57:44.176Z,63.50
2024-01-10T03:00:12.510Z,75.30
2024-01-10T03:02:39.577Z,77.60
2024-01-10T03:05:06.886Z,67.10
2024-01-10T03:07:33.760Z,61.50
2024-01-10T03:10:00.965Z,62.70
2024-01-10T03:12:27.919Z,72.10
2024-01-10T03:14:54.757Z,67.90
2024-01-10T03:17:21.712Z,70.40
2024-01-10T03:19:48.838Z,79.60
2024-01-10T03:22:15.788Z,76.60
2024-01-10T03:24:42.658Z,74.40
2024-01-10T03:27:09.612Z,80.30
2024-01-10T03:29:36.590Z,80.20
2024-01-10T03:32:03.985Z,68.60
2024-01-10T03:34:30.870Z,79.90
2024-01-10T03:36:57.755Z,76.30
2024-01-10T03:39:24.602Z,76.70
2024-01-10T03:41:51.473Z,79.10
2024-01-10T03:44:18.633Z,73.10
2024-01-10T03:46:46.170Z,78.50
2024-01-10T03:49:13.256Z,79.70
2024-01-10T03:51:41.954Z,74.10
2024-01-10T03:54:08.908Z,75.40
2024-01-10T03:56:36.111Z,74.10
2024-01-10T03:59:03.341Z,72.10
2024-01-10T04:01:30.357Z,73.80
2024-01-10T04:03:57.262Z,73.20
2024-01-10T04:06:25.487Z,79.90
2024-01-10T04:08:52.383Z,75.60
2024-01-10T04:11:19.331Z,84.30
2024-01-10T04:13:46.461Z,67.30
2024-01-10T04:16:14.344Z,72.60
2024-01-10T04:18:42.119Z,78.70
2024-01-10T04:21:09.989Z,71.00
2024-01-10T04:23:37.099Z,84.50
2024-01-10T04:26:04.618Z,68.40
2024-01-10T04:28:31.782Z,78.40
2024-01-10T04:30:58.797Z,69.20
2024-01-10T04:33:25.965Z,73.30
2024-01-10T04:35:52.885Z,73.70
2024-01-10T04:38:20.063Z,74.70
2024-01-10T04:40:47.075Z,68.80
2024-01-10T04:43:13.987Z,69.40
2024-01-10T04:45:40.807Z,62.80
2024-01-10T04:48:08.214Z,67.70
2024-01-10T04:50:36.274Z,65.90
2024-01-10T04:53:03.379Z,68.10
2024-01-10T04:55:30.397Z,69.30
2024-01-10T04:57:57.323Z,73.90
2024-01-10T05:00:24.199Z,69.40
2024-01-10T05:02:53.042Z,47.90
2024-01-10T05:05:25.195Z,69.50
2024-01-10T05:07:52.767Z,68.40
2024-01-10T05:10:19.767Z,72.40
2024-01-10T05:12:46.606Z,62.00
2024-01-10T05:15:13.705Z,63.60
2024-01-10T05:17:40.602Z,56.00
2024-01-10T05:20:08.189Z,66.30
2024-01-10T05:22:36.846Z,77.40
2024-01-10T05:25:05.750Z,61.50
2024-01-10T05:27:33.000Z,69.90
2024-01-10T05:30:01.069Z,72.80
2024-01-10T05:32:29.042Z,48.10
2024-01-10T05:34:56.219Z,67.60
2024-01-10T05:37:23.694Z,76.60
2024-01-10T05:39:50.838Z,70.10
2024-01-10T05:42:17.998Z,62.80
2024-01-10T05:44:44.976Z,68.20
2024-01-10T05:47:12.043Z,59.80
2024-01-10T05:49:39.008Z,75.50
2024-01-10T05:52:06.175Z,64.10
2024-01-10T05:54:32.993Z,75.10
2024-01-10T05:57:02.137Z,79.50
2024-01-10T05:59:30.187Z,77.30
2024-01-10T06:01:58.734Z,63.10
2024-01-10T06:04:25.912Z,70.70
2024-01-10T06:06:52.792Z,67.70
2024-01-10T06:09:23.350Z,71.80
2024-01-10T06:11:50.378Z,62.30
2024-01-10T06:14:17.855Z,74.10
2024-01-10T06:16:46.584Z,69.30
2024-01-10T06:19:13.650Z,66.40
2024-01-10T06:21:40.558Z,57.60
2024-01-10T06:24:07.618Z,65.50
2024-01-10T06:26:34.448Z,65.00
2024-01-10T06:29:01.377Z,59.70
2024-01-10T06:31:28.277Z,74.40
2024-01-10T06:33:55.553Z,66.10
2024-01-10T06:36:22.868Z,62.80
2024-01-10T06:38:49.916Z,63.50
2024-01-10T06:41:16.998Z,67.80
2024-01-10T06:43:43.989Z,52.40
2024-01-10T06:46:12.057Z,56.10
2024-01-10T06:48:42.500Z,60.20
2024-01-10T06:51:15.007Z,66.00
2024-01-10T06:53:42.236Z,62.80
2024-01-10T06:56:10.854Z,71.50
2024-01-10T06:58:37.964Z,74.40
2024-01-10T07:01:06.848Z,79.50
2024-01-10T07:03:36.183Z,76.70
2024-01-10T07:06:03.358Z,68.60
2024-01-10T07:08:32.050Z,77.60
2024-01-10T07:10:59.162Z,77.80
2024-01-10T07:13:26.086Z,84.00
2024-01-10T07:15:53.834Z,81.50
2024-01-10T07:18:21.040Z,79.30
2024-01-10T07:20:48.291Z,83.80
2024-01-10T07:23:15.350Z,90.30
2024-01-10T07:25:42.488Z,81.60
2024-01-10T07:28:09.497Z,80.00
2024-01-10T07:30:36.449Z,71.70
2024-01-10T07:33:03.829Z,75.40
2024-01-10T07:35:31.708Z,68.20
2024-01-10T07:37:58.772Z,73.80
2024-01-10T07:40:25.850Z,88.90
2024-01-10T07:42:52.806Z,95.80
2024-01-10T07:45:19.667Z,94.90
2024-01-10T07:47:47.962Z,88.30
2024-01-10T07:50:16.566Z,84.90
2024-01-10T07:52:44.262Z,92.70
2024-01-10T07:55:11.254Z,96.70
2024-01-10T07:57:38.373Z,77.40
2024-01-10T08:00:12.298Z,83.30
2024-01-10T08:02:40.476Z,86.80
2024-01-10T08:05:09.991Z,88.50
2024-01-10T08:07:38.564Z,95.20
2024-01-10T08:10:07.352Z,88.20
2024-01-10T08:12:34.222Z,82.80
2024-01-10T08:15:01.896Z,89.50
2024-01-10T08:17:31.078Z,88.00
2024-01-10T08:19:58.209Z,97.30
2024-01-10T08:22:27.241Z,92.70
2024-01-10T08:24:57.453Z,89.50
2024-01-10T08:27:24.928Z,96.30
2024-01-10T08:29:52.612Z,93.40
2024-01-10T08:32:21.990Z,105.60
2024-01-10T08:34:50.225Z,113.70
2024-01-10T08:37:18.613Z,109.00
2024-01-10T08:39:45.677Z,113.80
2024-01-10T08:42:12.856Z,107.00
2024-01-10T08:44:39.995Z,121.60
2024-01-10T08:47:07.068Z,119.80
2024-01-10T08:49:34.050Z,124.10
2024-01-10T08:52:00.921Z,120.70
2024-01-10T08:54:28.307Z,116.10
2024-01-10T08:56:55.475Z,133.40
2024-01-10T08:59:22.467Z,150.00
2024-01-10T09:01:49.421Z,124.90
2024-01-10T09:04:16.394Z,132.40
2024-01-10T09:06:43.307Z,149.40
2024-01-10T09:09:10.248Z,138.30
2024-01-10T09:11:40.130Z,136.30
2024-01-10T09:14:10.532Z,137.20
2024-01-10T09:16:37.591Z,126.80
2024-01-10T09:19:05.171Z,136.80
2024-01-10T09:21:32.820Z,118.00
2024-01-10T09:24:03.789Z,122.30
2024-01-10T09:26:35.506Z,126.20
2024-01-10T09:29:02.405Z,127.00
2024-01-10T09:31:29.442Z,122.50
2024-01-10T09:33:56.487Z,125.20
2024-01-10T09:36:23.530Z,129.60
2024-01-10T09:38:50.457Z,127.00
2024-01-10T09:41:18.228Z,126.30
2024-01-10T09:43:45.231Z,125.20
2024-01-10T09:46:12.707Z,125.20
2024-01-10T09:48:40.065Z,124.50
2024-01-10T09:51:08.096Z,122.80
2024-01-10T09:56:06.169Z,129.20
2024-01-10T09:58:35.285Z,128.50
2024-01-10T10:01:05.240Z,140.80
2024-01-10T10:03:37.563Z,141.90
2024-01-10T10:06:05.932Z,125.00
2024-01-10T10:08:32.962Z,116.50
2024-01-10T10:11:00.516Z,122.50
2024-01-10T10:13:30.550Z,116.10
2024-01-10T10:16:01.110Z,122.10
2024-01-10T10:18:29.169Z,117.60
2024-01-10T10:21:13.786Z,116.60
2024-01-10T10:23:42.982Z,127.10
2024-01-10T10:26:12.463Z,125.30
2024-01-10T10:28:41.677Z,122.90
2024-01-10T10:31:09.927Z,123.10
2024-01-10T10:33:38.711Z,123.00
2024-01-10T10:36:06.254Z,126.10
2024-01-10T10:38:33.278Z,124.30
2024-01-10T10:41:01.085Z,149.30
2024-01-10T10:43:32.173Z,145.70
2024-01-10T10:45:59.575Z,148.40
2024-01-10T10:48:27.980Z,140.20
2024-01-10T10:51:05.133Z,141.30
2024-01-10T10:53:33.159Z,137.40
2024-01-10T10:56:01.785Z,109.70
2024-01-10T10:58:29.392Z,111.00
2024-01-10T11:00:58.463Z,101.20
2024-01-10T11:03:28.916Z,106.10
2024-01-10T11:05:56.976Z,100.00
2024-01-10T11:08:25.902Z,89.90
2024-01-10T11:10:54.582Z,94.10
2024-01-10T11:13:33.923Z,101.40
2024-01-10T11:16:27.408Z,103.70
2024-01-10T11:19:13.365Z,94.20
2024-01-10T11:22:11.662Z,101.60
2024-01-10T11:24:39.107Z,98.80
2024-01-10T11:27:13.402Z,96.20
2024-01-10T11:29:41.345Z,92.40
2024-01-10T11:32:14.385Z,96.70
2024-01-10T11:35:00.552Z,92.80
2024-01-10T11:37:41.159Z,98.80
2024-01-10T11:40:10.730Z,96.00
2024-01-10T11:42:46.970Z,93.40
2024-01-10T11:45:35.224Z,92.40
2024-01-10T11:48:02.325Z,97.50
2024-01-10T11:50:32.486Z,94.60
2024-01-10T11:52:59.566Z,94.70
2024-01-10T11:55:49.614Z,86.90
2024-01-10T11:58:18.205Z,95.40
2024-01-10T12:00:45.427Z,90.80
2024-01-10T12:03:14.123Z,86.50
2024-01-10T12:05:41.648Z,84.60
2024-01-10T12:08:09.887Z,87.40
2024-01-10T12:10:46.888Z,101.70
2024-01-10T12:13:13.770Z,98.30
2024-01-10T12:15:41.230Z,104.50
2024-01-10T12:18:10.101Z,105.80
2024-01-10T12:20:37.307Z,110.90
2024-01-10T12:23:04.468Z,111.80
2024-01-10T12:25:31.530Z,101.70
2024-01-10T12:28:02.986Z,98.50
2024-01-10T12:30:30.052Z,87.60
2024-01-10T12:32:56.951Z,90.50
2024-01-10T12:35:23.952Z,89.50
2024-01-10T12:37:59.039Z,81.90
2024-01-10T12:40:26.289Z,85.00
2024-01-10T12:43:10.830Z,83.00
2024-01-10T12:45:38.245Z,81.30
2024-01-10T12:48:05.853Z,78.30
2024-01-10T12:50:32.968Z,83.50
2024-01-10T12:53:00.651Z,84.60
2024-01-10T12:55:29.371Z,84.70
2024-01-10T12:58:00.831Z,88.30
2024-01-10T13:00:30.274Z,92.40
2024-01-10T13:02:57.478Z,97.50
2024-01-10T13:05:24.629Z,79.60
2024-01-10T13:07:51.966Z,84.20
2024-01-10T13:10:19.834Z,72.80
2024-01-10T13:12:46.777Z,76.50
2024-01-10T13:15:13.715Z,75.60
2024-01-10T13:17:41.287Z,76.30
2024-01-10T13:20:11.002Z,77.70
2024-01-10T13:22:38.104Z,84.80
2024-01-10T13:25:05.533Z,73.90
2024-01-10T13:27:33.401Z,82.50
2024-01-10T13:30:00.397Z,80.10
2024-01-10T13:32:27.294Z,84.40
2024-01-10T13:34:54.254Z,82.80
2024-01-10T13:37:21.266Z,75.10
2024-01-10T13:39:48.130Z,74.50
2024-01-10T13:42:15.138Z,72.40
2024-01-10T13:44:42.308Z,75.90
2024-01-10T13:47:10.501Z,70.80
2024-01-10T13:49:37.344Z,72.50
2024-01-10T13:52:05.266Z,73.70
2024-01-10T13:54:32.206Z,77.20
2024-01-10T13:56:59.113Z,79.60
2024-01-10T13:59:26.128Z,84.30
2024-01-10T14:01:54.534Z,76.50
2024-01-10T14:04:21.450Z,110.40
2024-01-10T14:06:48.322Z,90.30
2024-01-10T14:09:15.597Z,84.50
2024-01-10T14:11:42.593Z,92.00
2024-01-10T14:14:09.542Z,102.70
2024-01-10T14:16:36.551Z,89.70
2024-01-10T14:19:04.198Z,84.90
2024-01-10T14:21:33.353Z,77.00
2024-01-10T14:24:02.499Z,81.70
2024-01-10T14:26:29.441Z,103.90
2024-01-10T14:28:58.068Z,87.40
2024-01-10T14:31:33.501Z,82.40
2024-01-10T14:34:09.509Z,80.80
2024-01-10T14:36:41.263Z,81.60
2024-01-10T14:39:09.413Z,74.10
2024-01-10T14:41:36.310Z,78.40
2024-01-10T14:44:05.030Z,82.90
2024-01-10T14:46:32.478Z,70.80
2024-01-10T14:48:59.523Z,70.30
2024-01-10T14:51:26.872Z,80.50
2024-01-10T14:53:54.049Z,67.50
2024-01-10T14:56:22.192Z,63.50
2024-01-10T14:58:49.181Z,65.30
2024-01-10T15:01:16.197Z,65.40
2024-01-10T15:03:44.068Z,68.30
2024-01-10T15:06:11.469Z,66.40
2024-01-10T15:08:38.459Z,55.00
2024-01-10T15:11:05.432Z,56.20
2024-01-10T15:13:32.364Z,57.20
2024-01-10T15:15:59.494Z,62.10
2024-01-10T15:18:26.456Z,61.20
2024-01-10T15:20:53.779Z,50.30
2024-01-10T15:23:20.734Z,58.10
2024-01-10T15:25:47.725Z,50.20
2024-01-10T15:28:14.674Z,63.10
2024-01-10T15:30:47.857Z,66.90
2024-01-10T15:35:42.644Z,56.70
2024-01-10T15:38:09.655Z,59.40
2024-01-10T15:40:36.561Z,58.60
2024-01-10T15:43:03.570Z,61.80
2024-01-10T15:45:32.824Z,62.10
2024-01-10T15:48:00.672Z,62.30
2024-01-10T15:50:28.295Z,56.10
2024-01-10T15:52:55.342Z,55.80
2024-01-10T15:55:22.256Z,57.60
2024-01-10T15:57:50.025Z,53.60
2024-01-10T16:00:17.391Z,55.90
2024-01-10T16:02:44.267Z,60.60
2024-01-10T16:05:11.403Z,58.50
2024-01-10T16:07:38.413Z,54.10
2024-01-10T16:10:05.779Z,53.30
2024-01-10T16:12:32.926Z,55.70
2024-01-10T16:14:59.976Z,64.70
2024-01-10T16:17:26.922Z,60.50
2024-01-10T16:19:53.920Z,61.50
2024-01-10T16:22:20.830Z,63.20
2024-01-10T16:24:47.769Z,64.90
2024-01-10T16:27:14.714Z,74.30
2024-01-10T16:29:41.771Z,67.60
2024-01-10T16:32:08.845Z,73.00
2024-01-10T16:34:36.767Z,69.80
2024-01-10T16:37:04.918Z,67.80
2024-01-10T16:39:31.822Z,65.10
2024-01-10T16:41:58.779Z,65.60
2024-01-10T16:44:25.847Z,64.00
2024-01-10T16:46:52.934Z,68.90
2024-01-10T16:49:20.047Z,62.60
2024-01-10T16:51:47.026Z,65.30
2024-01-10T16:54:14.090Z,64.80
2024-01-10T16:56:41.126Z,66.40
2024-01-10T16:59:08.541Z,66.90
2024-01-10T17:01:37.036Z,60.10
2024-01-10T17:04:04.671Z,73.70
2024-01-10T17:06:32.531Z,69.50
2024-01-10T17:09:02.158Z,67.60
2024-01-10T17:11:37.435Z,65.30
2024-01-10T17:14:04.595Z,82.80
2024-01-10T17:16:36.483Z,84.60
2024-01-10T17:19:04.181Z,80.20
2024-01-10T17:21:31.181Z,116.90
2024-01-10T17:23:58.227Z,162.70
2024-01-10T17:26:25.478Z,141.10
2024-01-10T17:28:52.935Z,141.10
2024-01-10T17:31:20.117Z,119.70
2024-01-10T17:33:47.381Z,108.50
2024-01-10T17:36:14.964Z,107.00
2024-01-10T17:38:42.011Z,115.40
2024-01-10T17:41:09.993Z,121.70
2024-01-10T17:43:39.246Z,117.80
2024-01-10T17:46:06.079Z,120.30
2024-01-10T17:48:33.124Z,114.90
2024-01-10T17:51:00.139Z,109.60
2024-01-10T17:53:27.315Z,108.20
2024-01-10T17:55:54.295Z,120.70
2024-01-10T17:58:21.359Z,123.50
2024-01-10T18:00:48.313Z,99.60
2024-01-10T18:03:15.707Z,109.80
2024-01-10T18:05:44.470Z,99.90
2024-01-10T18:08:11.523Z,237.10
2024-01-10T18:10:38.651Z,190.30
2024-01-10T18:13:06.359Z,164.20
2024-01-10T18:15:34.059Z,115.50
2024-01-10T18:18:01.057Z,130.20
2024-01-10T18:20:29.870Z,246.20
2024-01-10T18:22:56.950Z,264.80
2024-01-10T18:25:23.976Z,149.70
2024-01-10T18:27:50.807Z,108.60
2024-01-10T18:30:17.881Z,133.70
2024-01-10T18:32:45.026Z,327.70
2024-01-10T18:35:12.201Z,183.20
2024-01-10T18:37:39.244Z,150.20
2024-01-10T18:40:06.701Z,121.90
2024-01-10T18:42:33.552Z,126.60
2024-01-10T18:45:00.910Z,111.20
2024-01-10T18:47:27.927Z,106.30
2024-01-10T18:49:55.466Z,109.50
2024-01-10T18:52:22.353Z,106.00
2024-01-10T18:54:49.322Z,96.60
2024-01-10T18:57:19.634Z,108.50
2024-01-10T18:59:46.779Z,94.90
2024-01-10T19:02:14.428Z,98.50
2024-01-10T19:04:41.395Z,97.30
2024-01-10T19:07:08.339Z,110.60
2024-01-10T19:09:35.241Z,94.70
2024-01-10T19:12:05.805Z,95.90
2024-01-10T19:14:35.953Z,91.30
2024-01-10T19:17:03.126Z,99.90
2024-01-10T19:19:30.519Z,98.10
2024-01-10T19:22:01.679Z,98.50
2024-01-10T19:24:29.461Z,103.00
2024-01-10T19:26:56.432Z,107.10
2024-01-10T19:29:25.021Z,99.30
2024-01-10T19:31:53.114Z,101.90
2024-01-10T19:34:21.254Z,159.10
2024-01-10T19:36:48.484Z,105.50
2024-01-10T19:39:16.964Z,103.60
2024-01-10T19:41:43.942Z,117.90
2024-01-10T19:44:10.992Z,117.50
2024-01-10T19:46:38.217Z,121.60
2024-01-10T19:49:05.374Z,124.90
2024-01-10T19:51:34.640Z,138.30
2024-01-10T19:54:01.792Z,136.60
2024-01-10T19:56:31.307Z,141.70
2024-01-10T19:58:59.235Z,121.50
2024-01-10T20:01:26.973Z,134.90
2024-01-10T20:03:54.231Z,125.40
2024-01-10T20:06:21.361Z,137.70
2024-01-10T20:08:48.423Z,130.20
2024-01-10T20:11:16.043Z,121.20
2024-01-10T20:13:45.989Z,130.00
2024-01-10T20:16:13.652Z,124.90
2024-01-10T20:18:40.628Z,129.70
2024-01-10T20:21:07.870Z,124.10
2024-01-10T20:23:36.869Z,135.10
2024-01-10T20:26:06.099Z,131.90
2024-01-10T20:28:33.098Z,151.30
2024-01-10T20:31:00.064Z,161.20
2024-01-10T20:33:27.744Z,160.60
2024-01-10T20:35:55.322Z,181.70
2024-01-10T20:38:22.230Z,171.90
2024-01-10T20:40:49.296Z,189.10
2024-01-10T20:43:16.286Z,180.00
2024-01-10T20:45:43.665Z,167.40
2024-01-10T20:48:10.719Z,182.30
2024-01-10T20:50:41.360Z,171.30
2024-01-10T20:53:08.497Z,179.00
2024-01-10T20:55:35.848Z,166.00
2024-01-10T20:58:03.410Z,162.60
2024-01-10T21:00:31.152Z,163.40
2024-01-10T21:02:58.128Z,151.40
2024-01-10T21:05:25.048Z,161.10
2024-01-10T21:07:53.132Z,152.40
2024-01-10T21:10:20.060Z,136.20
2024-01-10T21:12:47.001Z,127.30
2024-01-10T21:15:14.069Z,117.90
2024-01-10T21:17:41.068Z,121.50
2024-01-10T21:20:10.195Z,123.60
2024-01-10T21:22:37.335Z,117.90
2024-01-10T21:25:05.043Z,184.20
2024-01-10T21:27:32.323Z,130.40
2024-01-10T21:29:59.255Z,132.10
2024-01-10T21:32:26.524Z,148.70
2024-01-10T21:34:54.697Z,136.50
2024-01-10T21:37:21.736Z,136.90
2024-01-10T21:39:48.616Z,127.90
2024-01-10T21:42:15.514Z,124.10
2024-01-10T21:44:43.797Z,128.60
2024-01-10T21:47:10.815Z,129.60
2024-01-10T21:49:37.660Z,123.60
2024-01-10T21:52:06.700Z,127.30
2024-01-10T21:54:34.451Z,133.60
2024-01-10T21:57:01.911Z,119.10
2024-01-10T21:59:28.915Z,116.60
2024-01-10T22:01:55.782Z,130.10
2024-01-10T22:04:22.748Z,148.00
2024-01-10T22:06:49.927Z,141.40
2024-01-10T22:09:16.921Z,117.30
2024-01-10T22:11:43.823Z,117.60
2024-01-10T22:14:10.910Z,111.20
2024-01-10T22:16:37.799Z,107.30
2024-01-10T22:19:04.741Z,122.10
2024-01-10T22:21:31.749Z,127.60
2024-01-10T22:23:58.724Z,140.00
2024-01-10T22:26:25.597Z,129.90
2024-01-10T22:28:52.750Z,116.10
2024-01-10T22:31:19.705Z,117.80
2024-01-10T22:33:47.124Z,132.30
2024-01-10T22:36:15.086Z,123.70
2024-01-10T22:38:43.026Z,131.40
2024-01-10T22:41:09.999Z,127.60
2024-01-10T22:43:37.078Z,142.90
2024-01-10T22:46:04.036Z,138.40
2024-01-10T22:48:31.646Z,148.80
2024-01-10T22:51:00.428Z,160.70
2024-01-10T22:53:27.629Z,171.70
2024-01-10T22:55:54.643Z,151.70
2024-01-10T22:58:23.419Z,152.60
2024-01-10T23:00:52.233Z,152.20
2024-01-10T23:03:20.794Z,164.30
2024-01-10T23:05:48.023Z,179.30
2024-01-10T23:08:15.107Z,170.40
2024-01-10T23:10:42.336Z,157.70
2024-01-10T23:13:09.223Z,185.20
2024-01-10T23:15:36.094Z,191.60
2024-01-10T23:18:03.334Z,196.90
2024-01-10T23:20:30.354Z,188.50
2024-01-10T23:22:57.352Z,167.20
2024-01-10T23:25:24.288Z,174.80
2024-01-10T23:27:51.812Z,171.60
2024-01-10T23:30:19.919Z,151.30
2024-01-10T23:32:48.003Z,144.30
2024-01-10T23:35:15.210Z,157.80
2024-01-10T23:37:42.628Z,165.10
2024-01-10T23:40:09.960Z,140.40
2024-01-10T23:42:36.864Z,141.60
2024-01-10T23:45:04.063Z,151.30
2024-01-10T23:47:31.034Z,155.60
2024-01-10T23:49:58.099Z,147.40
2024-01-10T23:52:24.974Z,173.10
2024-01-10T23:54:51.950Z,173.00
2024-01-10T23:57:18.869Z,166.00
2024-01-10T23:59:45.836Z,168.80
